Bylot, Canada
Current Conditions -  °F | °C
As of 4:00 AM on Wednesday 22 Oct 2014 (Local Time) from CYYQ Reporting Station
Moderate Fog Moderate Fog  
Wind Chill: 33°   Ceiling: 300
Heat Index: 37°   Visibility: 0.12mi
Dew Point: 37°   Wind: 6mph
Humidity: 100%   Direction: 50°NE
Pressure: 29.63"   Gusts: NA
Location:  58.42°N, 94.13°W
Report Text: CYYQ 220900Z 05005KT 1/8SM R33/2600FT/N FG VV003 03/03 A2963 RMK FG8 SLP035
Loading
Personal Weather Stations






























Interactive Weather Map
Tropical Storm Tracking
New forecast layout! Learn more

10-Day Weather Forecast

Advertisements
Track Severe Weather on mobile